createdAt,value
2019-03-03T00:02:25.317Z,94740.44
2019-03-03T00:04:55.638Z,94738.96
2019-03-03T00:07:25.995Z,94747.00
2019-03-03T00:09:56.673Z,94748.78
2019-03-03T00:12:27.128Z,94749.55
2019-03-03T00:14:58.875Z,94747.66
2019-03-03T00:17:29.208Z,94747.78
2019-03-03T00:19:59.791Z,94759.28
2019-03-03T00:22:30.523Z,94748.46
2019-03-03T00:25:00.835Z,94752.36
2019-03-03T00:27:31.168Z,94755.08
2019-03-03T00:30:01.675Z,94752.75
2019-03-03T00:32:32.065Z,94753.69
2019-03-03T00:35:02.382Z,94751.92
2019-03-03T00:37:52.206Z,94753.80
2019-03-03T00:40:44.701Z,94766.28
2019-03-03T00:43:46.143Z,94754.98
2019-03-03T00:46:38.182Z,94762.20
2019-03-03T00:49:23.781Z,94768.78
2019-03-03T00:52:14.933Z,94766.79
2019-03-03T00:55:19.533Z,94758.52
2019-03-03T00:58:11.564Z,94763.19
2019-03-03T01:01:16.389Z,94757.41
2019-03-03T01:04:04.935Z,94765.71
2019-03-03T01:06:47.295Z,94761.62
2019-03-03T01:09:38.605Z,94762.92
2019-03-03T01:12:33.934Z,94756.39
2019-03-03T01:15:26.673Z,94758.25
2019-03-03T01:18:22.258Z,94759.32
2019-03-03T01:20:58.043Z,94744.08
2019-03-03T01:23:53.613Z,94754.56
2019-03-03T01:26:24.010Z,94762.44
2019-03-03T01:28:54.498Z,94762.95
2019-03-03T01:31:24.813Z,94754.12
2019-03-03T01:33:55.144Z,94760.75
2019-03-03T01:36:25.739Z,94761.45
2019-03-03T01:38:56.191Z,94760.39
2019-03-03T01:41:26.554Z,94751.49
2019-03-03T01:43:56.933Z,94756.06
2019-03-03T01:46:27.299Z,94761.17
2019-03-03T01:48:57.697Z,94764.20
2019-03-03T01:51:28.501Z,94761.45
2019-03-03T01:53:58.878Z,94770.38
2019-03-03T01:56:29.652Z,94776.62
2019-03-03T01:58:59.974Z,94779.28
2019-03-03T02:01:30.320Z,94771.85
2019-03-03T02:04:00.926Z,94773.77
2019-03-03T02:06:31.420Z,94769.32
2019-03-03T02:09:01.802Z,94771.32
2019-03-03T02:11:34.090Z,94768.07
2019-03-03T02:14:04.690Z,94772.17
2019-03-03T02:16:34.961Z,94769.69
2019-03-03T02:19:06.059Z,94763.83
2019-03-03T02:21:36.754Z,94773.25
2019-03-03T02:24:07.196Z,94769.70
2019-03-03T02:26:37.827Z,94770.97
2019-03-03T02:29:08.211Z,94766.45
2019-03-03T02:31:39.169Z,94769.88
2019-03-03T02:34:09.814Z,94764.78
2019-03-03T02:36:40.150Z,94773.86
2019-03-03T02:39:18.798Z,94774.31
2019-03-03T02:41:49.213Z,94776.08
2019-03-03T02:44:19.545Z,94774.03
2019-03-03T02:46:49.892Z,94782.19
2019-03-03T02:49:21.590Z,94788.21
2019-03-03T02:51:51.914Z,94786.29
2019-03-03T02:54:22.256Z,94790.92
2019-03-03T02:56:52.767Z,94795.47
2019-03-03T02:59:23.416Z,94793.69
2019-03-03T03:02:03.541Z,94793.86
2019-03-03T03:04:34.094Z,94798.66
2019-03-03T03:07:32.871Z,94785.01
2019-03-03T03:10:12.050Z,94795.09
2019-03-03T03:13:02.520Z,94782.42
2019-03-03T03:15:52.970Z,94781.93
2019-03-03T03:18:34.361Z,94787.64
2019-03-03T03:21:22.261Z,94785.53
2019-03-03T03:24:00.448Z,94787.78
2019-03-03T03:26:46.463Z,94786.02
2019-03-03T03:29:31.712Z,94791.09
2019-03-03T03:32:21.384Z,94778.80
2019-03-03T03:35:28.778Z,94781.02
2019-03-03T03:38:18.023Z,94782.06
2019-03-03T03:41:12.922Z,94784.55
2019-03-03T03:44:04.720Z,94768.30
2019-03-03T03:46:41.755Z,94786.00
2019-03-03T03:49:37.358Z,94778.98
2019-03-03T03:52:25.450Z,94779.08
2019-03-03T03:55:13.349Z,94776.24
2019-03-03T03:58:19.512Z,94773.98
2019-03-03T04:01:15.156Z,94771.53
2019-03-03T04:03:49.728Z,94779.48
2019-03-03T04:06:39.378Z,94779.60
2019-03-03T04:09:43.674Z,94781.86
2019-03-03T04:12:23.847Z,94781.45
2019-03-03T04:15:15.914Z,94774.52
2019-03-03T04:18:23.545Z,94779.20
2019-03-03T04:21:15.918Z,94774.34
2019-03-03T04:24:00.515Z,94781.50
2019-03-03T04:26:48.591Z,94772.84
2019-03-03T04:29:32.843Z,94775.84
2019-03-03T04:32:12.899Z,94773.94
2019-03-03T04:34:53.219Z,94776.43
2019-03-03T04:37:39.793Z,94782.48
2019-03-03T04:40:44.522Z,94788.45
2019-03-03T04:43:33.817Z,94783.08
2019-03-03T04:46:17.822Z,94779.39
2019-03-03T04:49:10.160Z,94776.62
2019-03-03T04:51:58.416Z,94778.33
2019-03-03T04:54:54.645Z,94773.61
2019-03-03T04:57:41.361Z,94777.99
2019-03-03T05:00:35.847Z,94779.51
2019-03-03T05:03:15.500Z,94783.50
2019-03-03T05:06:04.754Z,94781.98
2019-03-03T05:08:41.602Z,94778.38
2019-03-03T05:11:38.003Z,94784.76
2019-03-03T05:14:28.157Z,94788.02
2019-03-03T05:17:08.706Z,94790.05
2019-03-03T05:19:44.948Z,94785.47
2019-03-03T05:22:15.319Z,94790.95
2019-03-03T05:24:46.015Z,94794.30
2019-03-03T05:27:16.336Z,94796.42
2019-03-03T05:29:46.684Z,94795.09
2019-03-03T05:32:17.261Z,94798.30
2019-03-03T05:34:47.618Z,94798.31
2019-03-03T05:37:17.913Z,94800.77
2019-03-03T05:39:48.676Z,94811.00
2019-03-03T05:42:19.051Z,94813.15
2019-03-03T05:44:49.380Z,94817.95
2019-03-03T05:47:20.050Z,94818.33
2019-03-03T05:49:50.733Z,94825.41
2019-03-03T05:52:21.134Z,94818.34
2019-03-03T05:54:51.701Z,94817.95
2019-03-03T05:57:22.595Z,94826.50
2019-03-03T05:59:52.906Z,94818.76
2019-03-03T06:02:23.387Z,94826.58
2019-03-03T06:04:54.162Z,94824.60
2019-03-03T06:07:24.453Z,94831.60
2019-03-03T06:09:55.762Z,94834.69
2019-03-03T06:12:26.344Z,94836.25
2019-03-03T06:14:56.841Z,94834.21
2019-03-03T06:17:27.175Z,94842.05
2019-03-03T06:19:57.828Z,94841.16
2019-03-03T06:22:28.397Z,94837.47
2019-03-03T06:24:59.435Z,94853.19
2019-03-03T06:27:29.792Z,94849.80
2019-03-03T06:30:00.301Z,94843.52
2019-03-03T06:32:31.125Z,94848.87
2019-03-03T06:35:01.461Z,94847.39
2019-03-03T06:37:31.960Z,94847.70
2019-03-03T06:40:02.565Z,94855.84
2019-03-03T06:42:32.925Z,94854.74
2019-03-03T06:45:03.331Z,94856.20
2019-03-03T06:47:33.943Z,94869.08
2019-03-03T06:50:04.795Z,94868.97
2019-03-03T06:52:35.391Z,94863.78
2019-03-03T06:55:07.001Z,94863.59
2019-03-03T06:57:37.580Z,94867.44
2019-03-03T07:00:11.510Z,94869.22
2019-03-03T07:02:41.849Z,94872.36
2019-03-03T07:05:12.527Z,94879.43
2019-03-03T07:07:43.062Z,94877.41
2019-03-03T07:10:14.279Z,94877.91
2019-03-03T07:12:44.600Z,94879.02
2019-03-03T07:15:16.567Z,94876.74
2019-03-03T07:17:47.271Z,94888.38
2019-03-03T07:20:17.592Z,94878.82
2019-03-03T07:22:48.466Z,94880.41
2019-03-03T07:25:19.171Z,94879.81
2019-03-03T07:27:49.523Z,94884.96
2019-03-03T07:30:20.019Z,94880.46
2019-03-03T07:33:21.459Z,94886.45
2019-03-03T07:35:52.114Z,94879.47
2019-03-03T07:38:22.517Z,94891.27
2019-03-03T07:40:52.828Z,94890.53
2019-03-03T07:43:23.450Z,94885.23
2019-03-03T07:45:54.164Z,94895.72
2019-03-03T07:48:24.523Z,94889.92
2019-03-03T07:50:55.070Z,94890.73
2019-03-03T07:53:26.672Z,94892.05
2019-03-03T07:55:56.979Z,94898.23
2019-03-03T07:58:27.276Z,94897.81
2019-03-03T08:00:57.828Z,94611.22
2019-03-03T08:03:28.481Z,94905.20
2019-03-03T08:05:59.930Z,94908.81
2019-03-03T08:08:30.526Z,94910.64
2019-03-03T08:11:00.962Z,94918.89
2019-03-03T08:13:31.541Z,94914.52
2019-03-03T08:16:01.967Z,94912.20
2019-03-03T08:18:32.397Z,94909.02
2019-03-03T08:21:02.933Z,94918.27
2019-03-03T08:23:33.287Z,94904.16
2019-03-03T08:26:03.584Z,94908.26
2019-03-03T08:28:34.320Z,94909.67
2019-03-03T08:31:04.922Z,94919.39
2019-03-03T08:33:35.794Z,94928.95
2019-03-03T08:36:06.109Z,94916.31
2019-03-03T08:38:36.567Z,94918.41
2019-03-03T08:41:06.954Z,94919.61
2019-03-03T08:43:44.590Z,94920.47
2019-03-03T08:46:32.248Z,94924.83
2019-03-03T08:49:17.301Z,94923.81
2019-03-03T08:51:59.263Z,94930.14
2019-03-03T08:54:54.364Z,94922.45
2019-03-03T08:57:40.053Z,94926.00
2019-03-03T09:00:29.051Z,94928.07
2019-03-03T09:03:09.351Z,94931.13
2019-03-03T09:06:10.947Z,94929.92
2019-03-03T09:08:50.032Z,94930.95
2019-03-03T09:11:38.325Z,94918.42
2019-03-03T09:14:21.244Z,94929.22
2019-03-03T09:17:05.028Z,94929.91
2019-03-03T09:19:47.795Z,94927.47
2019-03-03T09:22:32.730Z,94926.83
2019-03-03T09:25:31.137Z,94937.17
2019-03-03T09:28:11.814Z,94923.98
2019-03-03T09:30:55.454Z,94933.70
2019-03-03T09:33:54.525Z,94930.02
2019-03-03T09:36:46.624Z,94931.44
2019-03-03T09:39:30.368Z,94927.25
2019-03-03T09:42:28.844Z,94922.06
2019-03-03T09:45:09.216Z,94641.84
2019-03-03T09:47:50.378Z,94925.11
2019-03-03T09:50:46.015Z,94928.47
2019-03-03T09:53:35.807Z,94930.86
2019-03-03T09:56:18.325Z,94924.97
2019-03-03T09:59:06.395Z,94929.56
2019-03-03T10:01:48.192Z,94930.06
2019-03-03T10:04:35.899Z,94925.11
2019-03-03T10:07:15.792Z,94930.66
2019-03-03T10:10:11.249Z,94928.49
2019-03-03T10:12:57.741Z,94926.20
2019-03-03T10:15:37.543Z,94919.31
2019-03-03T10:18:19.880Z,94922.47
2019-03-03T10:21:00.525Z,94918.61
2019-03-03T10:23:52.909Z,94915.97
2019-03-03T10:26:37.045Z,94911.30
2019-03-03T10:29:16.325Z,94912.91
2019-03-03T10:32:08.591Z,94922.30
2019-03-03T10:35:00.464Z,94910.95
2019-03-03T10:37:55.681Z,94900.66
2019-03-03T10:40:36.422Z,94907.12
2019-03-03T10:43:32.153Z,94901.89
2019-03-03T10:46:18.868Z,94908.95
2019-03-03T10:49:09.148Z,94899.06
2019-03-03T10:51:45.798Z,94896.47
2019-03-03T10:54:38.349Z,94894.71
2019-03-03T10:57:24.571Z,94898.16
2019-03-03T11:00:17.060Z,94896.51
2019-03-03T11:03:15.057Z,94906.90
2019-03-03T11:05:56.258Z,94905.45
2019-03-03T11:08:37.784Z,94912.13
2019-03-03T11:11:33.116Z,94914.33
2019-03-03T11:14:21.579Z,94912.34
2019-03-03T11:17:06.863Z,94908.40
2019-03-03T11:19:56.123Z,94915.53
2019-03-03T11:22:57.603Z,94881.87
2019-03-03T11:25:41.350Z,94899.08
2019-03-03T11:28:23.691Z,94896.41
2019-03-03T11:31:14.638Z,94897.44
2019-03-03T11:34:03.378Z,94905.20
2019-03-03T11:36:36.942Z,94891.97
2019-03-03T11:39:30.872Z,94897.80
2019-03-03T11:42:19.809Z,94893.12
2019-03-03T11:45:21.334Z,94895.56
2019-03-03T11:48:23.079Z,94898.89
2019-03-03T11:51:15.370Z,94886.67
2019-03-03T11:54:09.546Z,94900.30
2019-03-03T11:56:50.074Z,94895.27
2019-03-03T11:59:35.914Z,94890.92
2019-03-03T12:02:23.275Z,94888.06
2019-03-03T12:05:05.960Z,94884.77
2019-03-03T12:08:06.201Z,94883.28
2019-03-03T12:11:01.951Z,94883.43
2019-03-03T12:13:50.101Z,94877.53
2019-03-03T12:16:44.745Z,94882.96
2019-03-03T12:19:37.293Z,94874.72
2019-03-03T12:22:15.565Z,94874.73
2019-03-03T12:25:22.816Z,94875.52
2019-03-03T12:28:11.757Z,94869.02
2019-03-03T12:31:00.433Z,94881.83
2019-03-03T12:33:46.918Z,94878.23
2019-03-03T12:36:33.081Z,94877.97
2019-03-03T12:39:21.286Z,94875.69
2019-03-03T12:42:09.413Z,94875.64
2019-03-03T12:44:49.081Z,94869.45
2019-03-03T12:47:28.932Z,94874.72
2019-03-03T12:50:09.488Z,94879.49
2019-03-03T12:53:07.968Z,94870.53
2019-03-03T12:55:49.348Z,94877.42
2019-03-03T12:58:44.874Z,94873.76
2019-03-03T13:01:32.932Z,94866.86
2019-03-03T13:04:22.202Z,94861.64
2019-03-03T13:07:12.978Z,94858.74
2019-03-03T13:10:01.037Z,94868.05
2019-03-03T13:12:57.759Z,94859.53
2019-03-03T13:15:51.501Z,94862.36
2019-03-03T13:18:29.883Z,94861.56
2019-03-03T13:21:22.513Z,94860.73
2019-03-03T13:24:15.073Z,94859.75
2019-03-03T13:27:10.144Z,94861.63
2019-03-03T13:30:07.276Z,94855.95
2019-03-03T13:32:50.969Z,94855.44
2019-03-03T13:35:33.484Z,94853.45
2019-03-03T13:38:26.044Z,94851.91
2019-03-03T13:41:12.597Z,94840.20
2019-03-03T13:43:43.184Z,94842.42
2019-03-03T13:46:13.679Z,94829.80
2019-03-03T13:48:44.598Z,94846.16
2019-03-03T13:51:15.481Z,94833.06
2019-03-03T13:53:46.055Z,94838.69
2019-03-03T13:56:16.436Z,94839.44
2019-03-03T13:58:47.913Z,94840.04
2019-03-03T14:01:18.732Z,94832.67
2019-03-03T14:03:49.307Z,94836.67
2019-03-03T14:06:19.703Z,94832.27
2019-03-03T14:08:50.382Z,94836.22
2019-03-03T14:11:27.780Z,94833.70
2019-03-03T14:13:58.394Z,94836.39
2019-03-03T14:16:29.085Z,94832.16
2019-03-03T14:18:59.865Z,94835.13
2019-03-03T14:21:30.141Z,94836.52
2019-03-03T14:24:00.721Z,94834.62
2019-03-03T14:26:31.172Z,94821.17
2019-03-03T14:29:01.877Z,94838.44
2019-03-03T14:31:32.293Z,94829.47
2019-03-03T14:34:02.617Z,94822.88
2019-03-03T14:36:33.389Z,94832.24
2019-03-03T14:39:05.808Z,94825.87
2019-03-03T14:41:36.913Z,94820.77
2019-03-03T14:44:08.633Z,94823.17
2019-03-03T14:46:39.174Z,94827.04
2019-03-03T14:49:09.504Z,94823.00
2019-03-03T14:51:39.874Z,94823.14
2019-03-03T14:54:10.633Z,94827.12
2019-03-03T14:56:42.698Z,94822.17
2019-03-03T14:59:13.139Z,94827.70
2019-03-03T15:01:43.694Z,94547.38
2019-03-03T15:04:14.154Z,94837.95
2019-03-03T15:06:44.628Z,94822.35
2019-03-03T15:09:20.944Z,94825.14
2019-03-03T15:11:51.600Z,94816.98
2019-03-03T15:14:21.983Z,94818.45
2019-03-03T15:16:52.694Z,94829.16
2019-03-03T15:19:23.347Z,94820.54
2019-03-03T15:21:53.848Z,94825.90
2019-03-03T15:24:24.453Z,94825.43
2019-03-03T15:26:55.095Z,94827.41
2019-03-03T15:29:25.371Z,94830.47
2019-03-03T15:31:55.800Z,94829.27
2019-03-03T15:34:26.253Z,94830.05
2019-03-03T15:36:56.878Z,94835.88
2019-03-03T15:39:27.524Z,94832.59
2019-03-03T15:41:57.961Z,94839.02
2019-03-03T15:44:28.436Z,94846.42
2019-03-03T15:46:59.102Z,94833.08
2019-03-03T15:49:29.572Z,94838.80
2019-03-03T15:51:59.884Z,94837.42
2019-03-03T15:54:30.602Z,94841.97
2019-03-03T15:57:00.964Z,94836.78
2019-03-03T15:59:31.383Z,94838.14
2019-03-03T16:02:03.290Z,94840.81
2019-03-03T16:04:33.823Z,94837.87
2019-03-03T16:07:04.584Z,94837.78
2019-03-03T16:09:34.897Z,94845.80
2019-03-03T16:12:05.291Z,94843.55
2019-03-03T16:14:36.130Z,94846.58
2019-03-03T16:17:06.778Z,94849.94
2019-03-03T16:19:37.104Z,94841.44
2019-03-03T16:22:07.820Z,94841.32
2019-03-03T16:24:38.341Z,94841.47
2019-03-03T16:27:08.747Z,94842.89
2019-03-03T16:29:39.408Z,94841.37
2019-03-03T16:32:10.016Z,94844.48
2019-03-03T16:34:40.451Z,94849.37
2019-03-03T16:37:10.755Z,94850.09
2019-03-03T16:39:41.122Z,94848.53
2019-03-03T16:42:11.754Z,94852.53
2019-03-03T16:44:42.323Z,94846.48
2019-03-03T16:47:12.839Z,94846.20
2019-03-03T16:49:43.501Z,94860.91
2019-03-03T16:52:14.263Z,94853.42
2019-03-03T16:54:44.593Z,94858.17
2019-03-03T16:57:15.244Z,94853.34
2019-03-03T16:59:46.014Z,94851.44
2019-03-03T17:02:16.614Z,94845.15
2019-03-03T17:04:46.984Z,94850.05
2019-03-03T17:07:17.325Z,94852.62
2019-03-03T17:09:47.941Z,94852.64
2019-03-03T17:12:18.713Z,94852.79
2019-03-03T17:14:49.014Z,94856.33
2019-03-03T17:17:19.584Z,94851.63
2019-03-03T17:19:50.254Z,94854.88
2019-03-03T17:22:21.808Z,94855.53
2019-03-03T17:24:52.180Z,94864.25
2019-03-03T17:27:22.701Z,94861.91
2019-03-03T17:29:52.953Z,94569.45
2019-03-03T17:32:23.713Z,94862.67
2019-03-03T17:34:54.590Z,94864.20
2019-03-03T17:37:24.947Z,94863.22
2019-03-03T17:39:55.924Z,94864.72
2019-03-03T17:42:26.554Z,94858.07
2019-03-03T17:44:57.104Z,94860.16
2019-03-03T17:47:27.690Z,94880.14
2019-03-03T17:49:58.018Z,94861.31
2019-03-03T17:52:28.349Z,94847.67
2019-03-03T17:54:58.805Z,94853.13
2019-03-03T17:57:29.100Z,94859.45
2019-03-03T17:59:59.520Z,94846.63
2019-03-03T18:02:30.247Z,94860.23
2019-03-03T18:05:00.683Z,94860.73
2019-03-03T18:07:30.992Z,94865.13
2019-03-03T18:10:01.758Z,94864.37
2019-03-03T18:12:32.140Z,94861.70
2019-03-03T18:15:02.622Z,94864.20
2019-03-03T18:17:33.099Z,94863.05
2019-03-03T18:20:03.455Z,94859.55
2019-03-03T18:22:34.200Z,94855.39
2019-03-03T18:25:04.804Z,94859.80
2019-03-03T18:27:35.090Z,94866.03
2019-03-03T18:30:06.590Z,94854.75
2019-03-03T18:32:37.289Z,94855.77
2019-03-03T18:35:08.000Z,94857.34
2019-03-03T18:37:38.548Z,94861.12
2019-03-03T18:40:10.485Z,94858.72
2019-03-03T18:42:40.860Z,94852.95
2019-03-03T18:45:12.661Z,94859.88
2019-03-03T18:47:43.065Z,94844.42
2019-03-03T18:50:15.540Z,94850.02
2019-03-03T18:52:46.591Z,94850.33
2019-03-03T18:55:17.146Z,94849.13
2019-03-03T18:57:47.654Z,94854.58
2019-03-03T19:00:22.753Z,94859.73
2019-03-03T19:02:54.775Z,94857.88
2019-03-03T19:05:26.431Z,94846.44
2019-03-03T19:07:57.192Z,94854.15
2019-03-03T19:10:28.237Z,94849.96
2019-03-03T19:12:58.627Z,94845.47
2019-03-03T19:15:29.540Z,94852.73
2019-03-03T19:17:59.852Z,94849.73
2019-03-03T19:20:30.182Z,94863.16
2019-03-03T19:23:00.775Z,94855.80
2019-03-03T19:25:31.177Z,94855.86
2019-03-03T19:28:01.513Z,94843.22
2019-03-03T19:30:32.427Z,94852.11
2019-03-03T19:33:09.668Z,94856.62
2019-03-03T19:35:40.263Z,94848.05
2019-03-03T19:38:11.025Z,94851.59
2019-03-03T19:40:41.851Z,94852.50
2019-03-03T19:43:12.339Z,94844.78
2019-03-03T19:45:42.915Z,94849.64
2019-03-03T19:48:13.506Z,94854.09
2019-03-03T19:50:44.226Z,94843.98
2019-03-03T19:53:14.739Z,94850.94
2019-03-03T19:55:45.034Z,94855.64
2019-03-03T19:58:15.446Z,94856.13
2019-03-03T20:00:46.304Z,94849.19
2019-03-03T20:03:17.611Z,94859.73
2019-03-03T20:05:48.196Z,94840.42
2019-03-03T20:08:18.826Z,94849.71
2019-03-03T20:10:49.238Z,94852.95
2019-03-03T20:13:19.578Z,94845.53
2019-03-03T20:15:50.321Z,94849.91
2019-03-03T20:18:20.728Z,94854.87
2019-03-03T20:20:51.313Z,94846.03
2019-03-03T20:23:21.635Z,94845.02
2019-03-03T20:25:52.008Z,94842.52
2019-03-03T20:28:22.762Z,94838.36
2019-03-03T20:30:53.327Z,94843.58
2019-03-03T20:33:23.761Z,94846.50
2019-03-03T20:35:54.527Z,94837.45
2019-03-03T20:38:25.162Z,94839.28
2019-03-03T20:40:55.467Z,94833.63
2019-03-03T20:43:26.147Z,94830.06
2019-03-03T20:45:56.635Z,94844.28
2019-03-03T20:48:26.952Z,94837.55
2019-03-03T20:50:57.848Z,94840.98
2019-03-03T20:53:28.140Z,94840.67
2019-03-03T20:55:59.636Z,94844.31
2019-03-03T20:58:29.920Z,94833.48
2019-03-03T21:01:01.569Z,94834.64
2019-03-03T21:03:32.237Z,94838.66
2019-03-03T21:06:02.781Z,94839.83
2019-03-03T21:08:33.392Z,94835.42
2019-03-03T21:11:05.035Z,94836.31
2019-03-03T21:13:35.759Z,94833.32
2019-03-03T21:16:06.127Z,94828.59
2019-03-03T21:18:36.632Z,94836.91
2019-03-03T21:21:07.060Z,94819.20
2019-03-03T21:23:37.379Z,94822.97
2019-03-03T21:26:07.837Z,94828.30
2019-03-03T21:28:38.128Z,94836.09
2019-03-03T21:31:08.830Z,94833.39
2019-03-03T21:33:39.592Z,94832.10
2019-03-03T21:36:09.918Z,94825.45
2019-03-03T21:38:40.487Z,94823.73
2019-03-03T21:41:11.231Z,94825.78
2019-03-03T21:43:41.523Z,94824.71
2019-03-03T21:46:13.366Z,94829.61
2019-03-03T21:48:44.119Z,94825.78
2019-03-03T21:51:14.470Z,94825.23
2019-03-03T21:53:44.751Z,94817.36
2019-03-03T21:56:15.202Z,94823.28
2019-03-03T21:58:45.824Z,94812.50
2019-03-03T22:01:16.643Z,94808.89
2019-03-03T22:03:46.927Z,94812.25
2019-03-03T22:06:17.377Z,94820.02
2019-03-03T22:08:48.059Z,94815.89
2019-03-03T22:11:18.504Z,94818.98
2019-03-03T22:13:48.836Z,94819.03
2019-03-03T22:16:19.487Z,94818.70
2019-03-03T22:18:49.777Z,94809.05
2019-03-03T22:21:20.099Z,94812.25
2019-03-03T22:23:50.823Z,94808.87
2019-03-03T22:26:21.353Z,94816.45
2019-03-03T22:28:51.889Z,94803.05
2019-03-03T22:31:22.484Z,94810.61
2019-03-03T22:33:52.820Z,94804.48
2019-03-03T22:36:23.464Z,94809.38
2019-03-03T22:38:53.842Z,94801.81
2019-03-03T22:41:24.407Z,94809.66
2019-03-03T22:43:55.062Z,94797.89
2019-03-03T22:46:25.932Z,94799.23
2019-03-03T22:48:56.286Z,94794.97
2019-03-03T22:51:27.018Z,94799.72
2019-03-03T22:53:57.387Z,94796.31
2019-03-03T22:56:27.709Z,94798.94
2019-03-03T22:58:58.358Z,94795.55
2019-03-03T23:01:32.532Z,94798.72
2019-03-03T23:04:42.496Z,94799.95
2019-03-03T23:08:12.254Z,94804.63
2019-03-03T23:11:26.058Z,94801.86
2019-03-03T23:14:43.301Z,94788.13
2019-03-03T23:17:34.123Z,94787.38
2019-03-03T23:20:27.023Z,94789.70
2019-03-03T23:23:37.135Z,94790.55
2019-03-03T23:26:16.303Z,94788.20
2019-03-03T23:28:39.927Z,94794.05
2019-03-03T23:31:11.726Z,94785.84
2019-03-03T23:33:42.515Z,94784.24
2019-03-03T23:36:12.867Z,94790.89
2019-03-03T23:38:43.175Z,94784.38
2019-03-03T23:41:14.044Z,94778.16
2019-03-03T23:43:44.349Z,94778.17
2019-03-03T23:46:14.676Z,94776.31
2019-03-03T23:48:45.302Z,94777.09
2019-03-03T23:51:15.820Z,94771.33
2019-03-03T23:53:46.109Z,94781.37
2019-03-03T23:56:16.775Z,94777.30
2019-03-03T23:58:47.554Z,94777.57
